メインページ
METAR-TAF:

METAR-TAF

空港 :

Hope, ブリティッシュコロンビア州, カナダ

緯度: 49-22N, 経度: 121-29W, 海抜: 39m

現時点の気象観測

当レポートは1時間2分前の09:00(UTC)に作成
東/南東の風 9kt
気温 12°C
湿度 100%
気圧 1013 hPa
視程: 14.5km
高度17000ftの雲は散在している

METAR: CYHE 260900Z AUTO 11009KT 9SM SCT170 12/12 A2991 RMK SLP130

時間: 03:02 (10:02 UTC)


TAF: 見つかりません

4,000以上の空港の気象観測と天気予報(METAR報とTAF報)

利用可能な観測所は地図上に黄色い丸と赤い丸で示す。

丸の上にカーソルを重ねると観測所名を参照できる。

次にクリックすると気象観測と天気予報を参照できる。

マップの切り替え:黒色「×」印の緑ボタンをクリックして拡大、「-」印の緑ボタンをクリックして縮小、緑色の三角印をクリックして隣りの地図に切り替え


METAR-TAF: